sensor_id;sensor_type;location;lat;lon;timestamp;noise_LAeq;noise_LA_min;noise_LA_max;noise_LA01;noise_LA95
45109;Laerm;30447;48.742;8.972;2023-06-10T00:01:50;37.66;33.44;50.29;;
45109;Laerm;30447;48.742;8.972;2023-06-10T00:04:18;37.29;33.44;43.24;;
45109;Laerm;30447;48.742;8.972;2023-06-10T00:06:44;37.38;33.44;41.61;;
45109;Laerm;30447;48.742;8.972;2023-06-10T00:09:11;37.27;32.93;40.80;;
45109;Laerm;30447;48.742;8.972;2023-06-10T00:11:38;38.33;33.90;45.11;;
45109;Laerm;30447;48.742;8.972;2023-06-10T00:14:05;38.11;33.44;43.81;;
45109;Laerm;30447;48.742;8.972;2023-06-10T00:16:33;37.48;33.44;40.03;;
45109;Laerm;30447;48.742;8.972;2023-06-10T00:19:00;37.26;33.44;40.13;;
45109;Laerm;30447;48.742;8.972;2023-06-10T00:21:28;37.19;32.93;39.70;;
45109;Laerm;30447;48.742;8.972;2023-06-10T00:23:56;37.53;32.35;41.22;;
45109;Laerm;30447;48.742;8.972;2023-06-10T00:26:23;37.53;33.44;41.22;;
45109;Laerm;30447;48.742;8.972;2023-06-10T00:28:50;37.33;32.93;40.03;;
45109;Laerm;30447;48.742;8.972;2023-06-10T00:31:17;37.20;31.68;43.72;;
45109;Laerm;30447;48.742;8.972;2023-06-10T00:33:44;37.21;32.58;39.70;;
45109;Laerm;30447;48.742;8.972;2023-06-10T00:36:10;37.24;32.93;40.03;;
45109;Laerm;30447;48.742;8.972;2023-06-10T00:38:37;37.28;32.58;40.13;;
45109;Laerm;30447;48.742;8.972;2023-06-10T00:41:03;37.09;32.35;44.80;;
45109;Laerm;30447;48.742;8.972;2023-06-10T00:43:30;38.88;33.44;44.94;;
45109;Laerm;30447;48.742;8.972;2023-06-10T00:45:57;37.97;33.90;47.16;;
45109;Laerm;30447;48.742;8.972;2023-06-10T00:48:24;37.51;33.09;41.61;;
45109;Laerm;30447;48.742;8.972;2023-06-10T00:50:51;37.94;33.55;43.39;;
45109;Laerm;30447;48.742;8.972;2023-06-10T00:53:18;37.79;33.09;43.58;;
45109;Laerm;30447;48.742;8.972;2023-06-10T00:55:45;37.94;33.44;40.98;;
45109;Laerm;30447;48.742;8.972;2023-06-10T00:58:12;38.03;32.35;41.14;;
45109;Laerm;30447;48.742;8.972;2023-06-10T01:00:39;37.59;32.35;41.06;;
45109;Laerm;30447;48.742;8.972;2023-06-10T01:03:06;37.57;32.93;43.29;;
45109;Laerm;30447;48.742;8.972;2023-06-10T01:05:39;37.27;32.93;43.34;;
45109;Laerm;30447;48.742;8.972;2023-06-10T01:08:33;37.23;32.93;39.92;;
45109;Laerm;30447;48.742;8.972;2023-06-10T01:11:07;37.80;33.44;54.06;;
45109;Laerm;30447;48.742;8.972;2023-06-10T01:13:36;37.79;33.90;41.89;;
45109;Laerm;30447;48.742;8.972;2023-06-10T01:16:04;37.99;34.31;44.95;;
45109;Laerm;30447;48.742;8.972;2023-06-10T01:18:31;37.63;32.35;42.76;;
45109;Laerm;30447;48.742;8.972;2023-06-10T01:20:58;37.67;33.44;43.34;;
45109;Laerm;30447;48.742;8.972;2023-06-10T01:23:25;37.53;32.93;40.89;;
45109;Laerm;30447;48.742;8.972;2023-06-10T01:26:08;37.44;32.35;40.80;;
45109;Laerm;30447;48.742;8.972;2023-06-10T01:28:48;37.27;32.35;39.81;;
45109;Laerm;30447;48.742;8.972;2023-06-10T01:31:30;37.36;32.35;40.71;;
45109;Laerm;30447;48.742;8.972;2023-06-10T01:34:10;37.53;33.44;43.90;;
45109;Laerm;30447;48.742;8.972;2023-06-10T01:36:40;37.26;32.93;41.38;;
45109;Laerm;30447;48.742;8.972;2023-06-10T01:39:11;37.41;32.35;41.06;;
45109;Laerm;30447;48.742;8.972;2023-06-10T01:41:40;37.38;32.93;40.03;;
45109;Laerm;30447;48.742;8.972;2023-06-10T01:44:06;37.51;32.35;42.29;;
45109;Laerm;30447;48.742;8.972;2023-06-10T01:46:33;37.49;31.68;56.37;;
45109;Laerm;30447;48.742;8.972;2023-06-10T01:49:00;37.77;33.44;42.41;;
45109;Laerm;30447;48.742;8.972;2023-06-10T01:51:26;37.57;33.44;47.98;;
45109;Laerm;30447;48.742;8.972;2023-06-10T01:53:53;37.89;32.93;46.80;;
45109;Laerm;30447;48.742;8.972;2023-06-10T01:56:19;38.05;33.44;41.53;;
45109;Laerm;30447;48.742;8.972;2023-06-10T01:58:47;37.18;32.93;42.88;;
45109;Laerm;30447;48.742;8.972;2023-06-10T02:01:14;37.67;32.93;45.07;;
45109;Laerm;30447;48.742;8.972;2023-06-10T02:03:41;37.66;33.44;45.20;;
45109;Laerm;30447;48.742;8.972;2023-06-10T02:06:07;37.43;33.44;40.98;;
45109;Laerm;30447;48.742;8.972;2023-06-10T02:08:34;37.48;33.90;41.14;;
45109;Laerm;30447;48.742;8.972;2023-06-10T02:11:01;37.63;33.44;41.46;;
45109;Laerm;30447;48.742;8.972;2023-06-10T02:13:27;38.23;33.90;42.47;;
45109;Laerm;30447;48.742;8.972;2023-06-10T02:15:54;39.06;35.04;46.30;;
45109;Laerm;30447;48.742;8.972;2023-06-10T02:18:20;39.20;35.66;50.92;;
45109;Laerm;30447;48.742;8.972;2023-06-10T02:20:48;40.03;35.59;51.86;;
45109;Laerm;30447;48.742;8.972;2023-06-10T02:23:15;42.53;35.94;54.79;;
45109;Laerm;30447;48.742;8.972;2023-06-10T02:25:41;42.73;36.91;57.15;;
45109;Laerm;30447;48.742;8.972;2023-06-10T02:28:08;42.61;35.94;56.50;;
45109;Laerm;30447;48.742;8.972;2023-06-10T02:30:34;43.31;36.20;56.80;;
45109;Laerm;30447;48.742;8.972;2023-06-10T02:33:01;43.80;36.91;58.32;;
45109;Laerm;30447;48.742;8.972;2023-06-10T02:35:28;44.55;37.32;56.45;;
45109;Laerm;30447;48.742;8.972;2023-06-10T02:37:55;43.48;37.70;54.96;;
45109;Laerm;30447;48.742;8.972;2023-06-10T02:40:21;42.99;36.20;54.84;;
45109;Laerm;30447;48.742;8.972;2023-06-10T02:42:48;43.57;37.32;56.80;;
45109;Laerm;30447;48.742;8.972;2023-06-10T02:45:15;44.28;37.12;56.85;;
45109;Laerm;30447;48.742;8.972;2023-06-10T02:47:41;42.92;36.77;56.84;;
45109;Laerm;30447;48.742;8.972;2023-06-10T02:50:08;41.79;35.94;52.60;;
45109;Laerm;30447;48.742;8.972;2023-06-10T02:52:35;43.26;37.12;54.85;;
45109;Laerm;30447;48.742;8.972;2023-06-10T02:55:01;44.08;36.91;55.09;;
45109;Laerm;30447;48.742;8.972;2023-06-10T02:57:28;43.87;37.32;56.51;;
45109;Laerm;30447;48.742;8.972;2023-06-10T02:59:55;43.27;36.20;55.04;;
45109;Laerm;30447;48.742;8.972;2023-06-10T03:02:21;42.87;36.20;54.96;;
45109;Laerm;30447;48.742;8.972;2023-06-10T03:04:49;42.88;35.36;57.08;;
45109;Laerm;30447;48.742;8.972;2023-06-10T03:07:17;42.39;35.36;55.59;;
45109;Laerm;30447;48.742;8.972;2023-06-10T03:09:45;41.87;35.66;54.77;;
45109;Laerm;30447;48.742;8.972;2023-06-10T03:12:11;41.87;35.66;54.00;;
45109;Laerm;30447;48.742;8.972;2023-06-10T03:14:38;40.77;35.04;53.62;;
45109;Laerm;30447;48.742;8.972;2023-06-10T03:17:05;39.67;35.94;50.38;;
45109;Laerm;30447;48.742;8.972;2023-06-10T03:19:32;39.23;35.66;54.38;;
45109;Laerm;30447;48.742;8.972;2023-06-10T03:22:14;41.56;35.04;58.73;;
45109;Laerm;30447;48.742;8.972;2023-06-10T03:24:41;42.08;35.36;56.19;;
45109;Laerm;30447;48.742;8.972;2023-06-10T03:27:10;43.77;35.94;68.56;;
45109;Laerm;30447;48.742;8.972;2023-06-10T03:29:41;41.59;35.94;54.45;;
45109;Laerm;30447;48.742;8.972;2023-06-10T03:32:07;41.80;35.66;56.66;;
45109;Laerm;30447;48.742;8.972;2023-06-10T03:34:34;41.50;35.36;56.39;;
45109;Laerm;30447;48.742;8.972;2023-06-10T03:37:01;42.21;36.20;55.94;;
45109;Laerm;30447;48.742;8.972;2023-06-10T03:39:28;42.54;36.45;59.85;;
45109;Laerm;30447;48.742;8.972;2023-06-10T03:41:55;41.62;35.66;59.42;;
45109;Laerm;30447;48.742;8.972;2023-06-10T03:44:24;40.78;36.20;58.74;;
45109;Laerm;30447;48.742;8.972;2023-06-10T03:46:52;41.04;35.94;52.56;;
45109;Laerm;30447;48.742;8.972;2023-06-10T03:49:19;39.90;36.20;48.61;;
45109;Laerm;30447;48.742;8.972;2023-06-10T03:51:46;44.10;35.94;59.24;;
45109;Laerm;30447;48.742;8.972;2023-06-10T03:54:12;40.81;35.36;58.54;;
45109;Laerm;30447;48.742;8.972;2023-06-10T03:56:39;41.47;35.36;53.07;;
45109;Laerm;30447;48.742;8.972;2023-06-10T03:59:05;40.77;35.04;53.00;;
45109;Laerm;30447;48.742;8.972;2023-06-10T04:01:32;40.35;35.66;53.22;;
45109;Laerm;30447;48.742;8.972;2023-06-10T04:03:59;39.75;35.94;52.54;;
45109;Laerm;30447;48.742;8.972;2023-06-10T04:06:27;38.81;34.31;50.29;;
45109;Laerm;30447;48.742;8.972;2023-06-10T04:08:56;39.49;33.90;50.13;;
45109;Laerm;30447;48.742;8.972;2023-06-10T04:11:26;40.14;34.69;52.21;;
45109;Laerm;30447;48.742;8.972;2023-06-10T04:13:52;40.46;35.04;52.43;;
45109;Laerm;30447;48.742;8.972;2023-06-10T04:16:20;44.95;34.69;55.30;;
45109;Laerm;30447;48.742;8.972;2023-06-10T04:18:47;40.51;35.36;50.26;;
45109;Laerm;30447;48.742;8.972;2023-06-10T04:21:14;42.04;35.94;56.91;;
45109;Laerm;30447;48.742;8.972;2023-06-10T04:23:41;42.98;35.66;57.40;;
45109;Laerm;30447;48.742;8.972;2023-06-10T04:26:07;38.69;35.04;48.85;;
45109;Laerm;30447;48.742;8.972;2023-06-10T04:28:34;39.29;35.36;56.38;;
45109;Laerm;30447;48.742;8.972;2023-06-10T04:31:02;39.77;35.36;55.38;;
45109;Laerm;30447;48.742;8.972;2023-06-10T04:33:30;39.67;35.36;51.76;;
45109;Laerm;30447;48.742;8.972;2023-06-10T04:35:57;39.32;35.94;50.14;;
45109;Laerm;30447;48.742;8.972;2023-06-10T04:38:24;40.90;35.94;56.32;;
45109;Laerm;30447;48.742;8.972;2023-06-10T04:40:51;40.53;35.04;54.56;;
45109;Laerm;30447;48.742;8.972;2023-06-10T04:43:17;41.81;36.45;52.17;;
45109;Laerm;30447;48.742;8.972;2023-06-10T04:45:44;41.84;36.98;57.58;;
45109;Laerm;30447;48.742;8.972;2023-06-10T04:48:11;44.04;36.91;64.44;;
45109;Laerm;30447;48.742;8.972;2023-06-10T04:50:38;45.14;37.32;67.90;;
45109;Laerm;30447;48.742;8.972;2023-06-10T04:53:05;44.35;38.67;67.79;;
45109;Laerm;30447;48.742;8.972;2023-06-10T04:55:33;43.74;37.32;59.72;;
45109;Laerm;30447;48.742;8.972;2023-06-10T04:58:00;40.40;36.69;49.15;;
45109;Laerm;30447;48.742;8.972;2023-06-10T05:00:27;41.59;38.21;47.26;;
45109;Laerm;30447;48.742;8.972;2023-06-10T05:02:54;42.00;36.45;53.54;;
45109;Laerm;30447;48.742;8.972;2023-06-10T05:05:22;42.40;37.70;54.91;;
45109;Laerm;30447;48.742;8.972;2023-06-10T05:07:48;41.69;35.94;53.22;;
45109;Laerm;30447;48.742;8.972;2023-06-10T05:10:15;43.19;37.70;54.26;;
45109;Laerm;30447;48.742;8.972;2023-06-10T05:12:42;41.81;38.05;52.45;;
45109;Laerm;30447;48.742;8.972;2023-06-10T05:15:09;41.92;37.32;55.78;;
45109;Laerm;30447;48.742;8.972;2023-06-10T05:17:36;41.45;38.05;52.61;;
45109;Laerm;30447;48.742;8.972;2023-06-10T05:20:04;43.23;38.05;60.91;;
45109;Laerm;30447;48.742;8.972;2023-06-10T05:22:30;44.90;36.91;62.12;;
45109;Laerm;30447;48.742;8.972;2023-06-10T05:24:57;44.74;36.91;71.44;;
45109;Laerm;30447;48.742;8.972;2023-06-10T05:27:24;46.54;40.03;51.66;;
45109;Laerm;30447;48.742;8.972;2023-06-10T05:29:51;43.45;35.94;59.82;;
45109;Laerm;30447;48.742;8.972;2023-06-10T05:32:18;41.44;36.45;52.42;;
45109;Laerm;30447;48.742;8.972;2023-06-10T05:34:44;41.92;37.52;53.31;;
45109;Laerm;30447;48.742;8.972;2023-06-10T05:37:12;42.24;36.91;53.45;;
45109;Laerm;30447;48.742;8.972;2023-06-10T05:39:39;42.43;37.52;54.47;;
45109;Laerm;30447;48.742;8.972;2023-06-10T05:42:07;41.89;36.20;53.13;;
45109;Laerm;30447;48.742;8.972;2023-06-10T05:44:34;40.45;35.04;57.30;;
45109;Laerm;30447;48.742;8.972;2023-06-10T05:47:01;41.02;35.36;55.47;;
45109;Laerm;30447;48.742;8.972;2023-06-10T05:49:28;39.88;35.86;50.94;;
45109;Laerm;30447;48.742;8.972;2023-06-10T05:51:54;40.83;35.66;50.69;;
45109;Laerm;30447;48.742;8.972;2023-06-10T05:54:22;46.14;36.20;61.57;;
45109;Laerm;30447;48.742;8.972;2023-06-10T05:56:49;43.40;35.86;62.22;;
45109;Laerm;30447;48.742;8.972;2023-06-10T05:59:16;40.59;35.94;52.02;;
45109;Laerm;30447;48.742;8.972;2023-06-10T06:01:42;43.55;35.94;58.10;;
45109;Laerm;30447;48.742;8.972;2023-06-10T06:04:09;47.16;37.52;59.93;;
45109;Laerm;30447;48.742;8.972;2023-06-10T06:06:38;44.89;36.69;60.21;;
45109;Laerm;30447;48.742;8.972;2023-06-10T06:09:06;46.08;35.04;61.25;;
45109;Laerm;30447;48.742;8.972;2023-06-10T06:11:34;42.01;35.94;55.34;;
45109;Laerm;30447;48.742;8.972;2023-06-10T06:14:02;40.34;35.36;56.04;;
45109;Laerm;30447;48.742;8.972;2023-06-10T06:16:28;39.52;35.36;58.31;;
45109;Laerm;30447;48.742;8.972;2023-06-10T06:18:55;39.07;34.69;49.20;;
45109;Laerm;30447;48.742;8.972;2023-06-10T06:21:21;40.42;35.04;52.85;;
45109;Laerm;30447;48.742;8.972;2023-06-10T06:23:48;40.72;36.20;52.32;;
45109;Laerm;30447;48.742;8.972;2023-06-10T06:26:15;39.85;36.45;47.95;;
45109;Laerm;30447;48.742;8.972;2023-06-10T06:28:41;40.34;36.45;52.51;;
45109;Laerm;30447;48.742;8.972;2023-06-10T06:31:08;43.99;36.20;56.07;;
45109;Laerm;30447;48.742;8.972;2023-06-10T06:33:35;43.51;36.20;67.29;;
45109;Laerm;30447;48.742;8.972;2023-06-10T06:36:01;43.34;35.94;57.03;;
45109;Laerm;30447;48.742;8.972;2023-06-10T06:38:28;42.12;35.66;56.92;;
45109;Laerm;30447;48.742;8.972;2023-06-10T06:40:54;42.83;35.94;56.48;;
45109;Laerm;30447;48.742;8.972;2023-06-10T06:43:21;43.27;35.36;57.25;;
45109;Laerm;30447;48.742;8.972;2023-06-10T06:45:48;42.50;36.45;56.20;;
45109;Laerm;30447;48.742;8.972;2023-06-10T06:48:14;42.53;36.20;55.99;;
45109;Laerm;30447;48.742;8.972;2023-06-10T06:50:41;41.25;35.66;56.54;;
45109;Laerm;30447;48.742;8.972;2023-06-10T06:53:08;41.96;36.20;56.79;;
45109;Laerm;30447;48.742;8.972;2023-06-10T06:55:35;42.39;36.45;57.55;;
45109;Laerm;30447;48.742;8.972;2023-06-10T06:58:01;39.98;35.94;55.48;;
45109;Laerm;30447;48.742;8.972;2023-06-10T07:00:31;40.74;36.45;56.31;;
45109;Laerm;30447;48.742;8.972;2023-06-10T07:02:58;40.26;36.20;49.88;;
45109;Laerm;30447;48.742;8.972;2023-06-10T07:05:25;40.82;35.66;59.56;;
45109;Laerm;30447;48.742;8.972;2023-06-10T07:07:54;41.32;36.20;55.93;;
45109;Laerm;30447;48.742;8.972;2023-06-10T07:10:26;40.05;35.04;56.61;;
45109;Laerm;30447;48.742;8.972;2023-06-10T07:12:53;39.14;35.36;49.63;;
45109;Laerm;30447;48.742;8.972;2023-06-10T07:15:20;39.76;35.36;50.85;;
45109;Laerm;30447;48.742;8.972;2023-06-10T07:17:47;39.51;35.94;49.35;;
45109;Laerm;30447;48.742;8.972;2023-06-10T07:20:14;39.64;35.04;51.31;;
45109;Laerm;30447;48.742;8.972;2023-06-10T07:22:42;39.79;35.36;47.20;;
45109;Laerm;30447;48.742;8.972;2023-06-10T07:25:09;40.02;35.94;52.80;;
45109;Laerm;30447;48.742;8.972;2023-06-10T07:27:36;40.75;36.20;48.73;;
45109;Laerm;30447;48.742;8.972;2023-06-10T07:30:07;42.41;36.91;55.43;;
45109;Laerm;30447;48.742;8.972;2023-06-10T07:32:34;42.40;37.32;56.83;;
45109;Laerm;30447;48.742;8.972;2023-06-10T07:35:01;40.83;36.20;53.58;;
45109;Laerm;30447;48.742;8.972;2023-06-10T07:37:27;42.11;35.36;59.78;;
45109;Laerm;30447;48.742;8.972;2023-06-10T07:39:54;41.83;35.66;56.69;;
45109;Laerm;30447;48.742;8.972;2023-06-10T07:42:21;40.45;35.66;53.84;;
45109;Laerm;30447;48.742;8.972;2023-06-10T07:44:48;39.92;36.20;53.55;;
45109;Laerm;30447;48.742;8.972;2023-06-10T07:47:15;43.22;37.12;55.46;;
45109;Laerm;30447;48.742;8.972;2023-06-10T07:49:41;42.02;35.36;61.85;;
45109;Laerm;30447;48.742;8.972;2023-06-10T07:52:08;39.67;35.04;47.20;;
45109;Laerm;30447;48.742;8.972;2023-06-10T07:54:35;39.22;35.66;47.59;;
45109;Laerm;30447;48.742;8.972;2023-06-10T07:57:02;39.72;35.04;51.78;;
45109;Laerm;30447;48.742;8.972;2023-06-10T07:59:28;40.25;35.04;52.91;;
45109;Laerm;30447;48.742;8.972;2023-06-10T08:01:55;41.26;35.66;60.00;;
45109;Laerm;30447;48.742;8.972;2023-06-10T08:04:22;41.78;35.94;56.84;;
45109;Laerm;30447;48.742;8.972;2023-06-10T08:06:48;43.16;36.20;60.97;;
45109;Laerm;30447;48.742;8.972;2023-06-10T08:09:15;41.43;36.20;57.31;;
45109;Laerm;30447;48.742;8.972;2023-06-10T08:11:42;39.67;35.04;57.40;;
45109;Laerm;30447;48.742;8.972;2023-06-10T08:14:09;41.70;35.66;56.99;;
45109;Laerm;30447;48.742;8.972;2023-06-10T08:16:35;44.71;39.92;58.68;;
45109;Laerm;30447;48.742;8.972;2023-06-10T08:19:02;45.63;37.88;66.37;;
45109;Laerm;30447;48.742;8.972;2023-06-10T08:21:29;44.74;37.32;64.49;;
45109;Laerm;30447;48.742;8.972;2023-06-10T08:23:55;60.82;40.33;69.56;;
45109;Laerm;30447;48.742;8.972;2023-06-10T08:26:23;62.33;57.40;67.56;;
45109;Laerm;30447;48.742;8.972;2023-06-10T08:28:49;62.84;57.87;70.81;;
45109;Laerm;30447;48.742;8.972;2023-06-10T08:31:16;62.55;58.44;69.15;;
45109;Laerm;30447;48.742;8.972;2023-06-10T08:33:43;62.43;58.16;68.90;;
45109;Laerm;30447;48.742;8.972;2023-06-10T08:36:09;62.77;59.15;68.01;;
45109;Laerm;30447;48.742;8.972;2023-06-10T08:38:36;62.27;57.63;65.88;;
45109;Laerm;30447;48.742;8.972;2023-06-10T08:41:06;62.11;41.61;68.00;;
45109;Laerm;30447;48.742;8.972;2023-06-10T08:44:01;44.53;40.45;62.35;;
45109;Laerm;30447;48.742;8.972;2023-06-10T08:46:31;41.95;36.91;56.09;;
45109;Laerm;30447;48.742;8.972;2023-06-10T08:49:05;40.63;36.91;47.96;;
45109;Laerm;30447;48.742;8.972;2023-06-10T08:51:35;42.97;35.94;56.96;;
45109;Laerm;30447;48.742;8.972;2023-06-10T08:54:17;41.00;35.04;60.73;;
45109;Laerm;30447;48.742;8.972;2023-06-10T08:56:49;40.47;35.66;53.38;;
45109;Laerm;30447;48.742;8.972;2023-06-10T08:59:21;40.18;35.36;49.44;;
45109;Laerm;30447;48.742;8.972;2023-06-10T09:01:48;39.50;35.04;49.71;;
45109;Laerm;30447;48.742;8.972;2023-06-10T09:04:16;39.72;35.59;48.40;;
45109;Laerm;30447;48.742;8.972;2023-06-10T09:06:46;42.49;35.36;59.76;;
45109;Laerm;30447;48.742;8.972;2023-06-10T09:09:15;40.15;35.36;52.89;;
45109;Laerm;30447;48.742;8.972;2023-06-10T09:11:43;43.11;35.86;63.14;;
45109;Laerm;30447;48.742;8.972;2023-06-10T09:14:10;40.37;36.10;63.10;;
45109;Laerm;30447;48.742;8.972;2023-06-10T09:16:39;42.67;35.86;62.04;;
45109;Laerm;30447;48.742;8.972;2023-06-10T09:19:06;52.71;36.91;69.64;;
45109;Laerm;30447;48.742;8.972;2023-06-10T09:21:36;54.52;42.16;65.92;;
45109;Laerm;30447;48.742;8.972;2023-06-10T09:24:03;59.59;41.89;69.14;;
45109;Laerm;30447;48.742;8.972;2023-06-10T09:26:31;64.36;59.26;69.31;;
45109;Laerm;30447;48.742;8.972;2023-06-10T09:29:04;68.40;60.99;75.28;;
45109;Laerm;30447;48.742;8.972;2023-06-10T09:31:34;64.67;57.66;71.74;;
45109;Laerm;30447;48.742;8.972;2023-06-10T09:34:13;62.82;57.45;74.87;;
45109;Laerm;30447;48.742;8.972;2023-06-10T09:36:41;62.79;57.62;68.14;;
45109;Laerm;30447;48.742;8.972;2023-06-10T09:39:17;61.82;36.56;77.33;;
45109;Laerm;30447;48.742;8.972;2023-06-10T09:41:45;40.76;36.20;60.42;;
45109;Laerm;30447;48.742;8.972;2023-06-10T09:44:20;40.83;35.66;51.84;;
45109;Laerm;30447;48.742;8.972;2023-06-10T09:46:49;41.08;36.69;54.90;;
45109;Laerm;30447;48.742;8.972;2023-06-10T09:49:21;40.83;35.94;54.45;;
45109;Laerm;30447;48.742;8.972;2023-06-10T09:51:53;42.09;35.66;58.38;;
45109;Laerm;30447;48.742;8.972;2023-06-10T09:54:21;40.12;36.20;52.71;;
45109;Laerm;30447;48.742;8.972;2023-06-10T09:56:51;40.23;36.20;50.14;;
45109;Laerm;30447;48.742;8.972;2023-06-10T09:59:38;40.46;33.90;54.41;;
45109;Laerm;30447;48.742;8.972;2023-06-10T10:02:04;42.03;35.66;57.68;;
45109;Laerm;30447;48.742;8.972;2023-06-10T10:04:31;41.96;35.36;59.52;;
45109;Laerm;30447;48.742;8.972;2023-06-10T10:07:00;40.66;35.66;53.90;;
45109;Laerm;30447;48.742;8.972;2023-06-10T10:09:27;42.47;35.04;56.49;;
45109;Laerm;30447;48.742;8.972;2023-06-10T10:11:56;41.01;36.34;51.27;;
45109;Laerm;30447;48.742;8.972;2023-06-10T10:14:24;39.72;35.66;50.69;;
45109;Laerm;30447;48.742;8.972;2023-06-10T10:16:52;39.49;35.04;57.12;;
45109;Laerm;30447;48.742;8.972;2023-06-10T10:19:51;39.66;35.36;46.07;;
45109;Laerm;30447;48.742;8.972;2023-06-10T10:22:30;41.95;35.04;57.34;;
45109;Laerm;30447;48.742;8.972;2023-06-10T10:25:02;40.89;35.66;53.88;;
45109;Laerm;30447;48.742;8.972;2023-06-10T10:27:36;43.99;35.36;59.61;;
45109;Laerm;30447;48.742;8.972;2023-06-10T10:30:11;46.51;38.21;62.59;;
45109;Laerm;30447;48.742;8.972;2023-06-10T10:35:21;46.27;37.32;61.89;;
45109;Laerm;30447;48.742;8.972;2023-06-10T10:37:54;40.88;37.32;50.83;;
45109;Laerm;30447;48.742;8.972;2023-06-10T10:40:23;41.22;37.12;57.57;;
45109;Laerm;30447;48.742;8.972;2023-06-10T10:42:52;39.74;36.45;50.41;;
45109;Laerm;30447;48.742;8.972;2023-06-10T10:45:21;40.04;36.20;49.19;;
45109;Laerm;30447;48.742;8.972;2023-06-10T10:47:54;42.21;35.66;62.80;;
45109;Laerm;30447;48.742;8.972;2023-06-10T10:50:28;40.69;36.69;57.68;;
45109;Laerm;30447;48.742;8.972;2023-06-10T10:53:04;39.36;36.20;45.97;;
45109;Laerm;30447;48.742;8.972;2023-06-10T10:55:32;53.36;35.36;70.94;;
45109;Laerm;30447;48.742;8.972;2023-06-10T10:58:13;55.63;35.66;73.57;;
45109;Laerm;30447;48.742;8.972;2023-06-10T11:00:45;46.42;35.66;65.45;;
45109;Laerm;30447;48.742;8.972;2023-06-10T11:03:15;43.04;35.66;70.09;;
45109;Laerm;30447;48.742;8.972;2023-06-10T11:05:47;53.92;35.66;70.18;;
45109;Laerm;30447;48.742;8.972;2023-06-10T11:11:27;44.54;35.66;59.68;;
45109;Laerm;30447;48.742;8.972;2023-06-10T11:16:42;40.70;35.36;56.59;;
45109;Laerm;30447;48.742;8.972;2023-06-10T11:19:09;46.96;35.36;64.44;;
45109;Laerm;30447;48.742;8.972;2023-06-10T11:22:03;45.84;35.04;67.66;;
45109;Laerm;30447;48.742;8.972;2023-06-10T11:24:30;39.06;35.04;47.70;;
45109;Laerm;30447;48.742;8.972;2023-06-10T11:32:23;46.88;36.20;64.81;;
45109;Laerm;30447;48.742;8.972;2023-06-10T11:34:54;48.45;36.20;65.38;;
45109;Laerm;30447;48.742;8.972;2023-06-10T11:37:22;48.39;35.94;65.19;;
45109;Laerm;30447;48.742;8.972;2023-06-10T11:39:53;47.61;35.04;67.54;;
45109;Laerm;30447;48.742;8.972;2023-06-10T11:42:22;47.98;35.04;63.79;;
45109;Laerm;30447;48.742;8.972;2023-06-10T11:44:52;49.23;35.01;66.74;;
45109;Laerm;30447;48.742;8.972;2023-06-10T11:47:20;49.06;35.04;64.63;;
45109;Laerm;30447;48.742;8.972;2023-06-10T11:49:57;45.42;35.36;64.96;;
45109;Laerm;30447;48.742;8.972;2023-06-10T11:52:29;46.82;35.04;65.34;;
45109;Laerm;30447;48.742;8.972;2023-06-10T11:54:58;43.58;35.66;59.05;;
45109;Laerm;30447;48.742;8.972;2023-06-10T11:57:24;38.49;34.31;49.94;;
45109;Laerm;30447;48.742;8.972;2023-06-10T11:59:51;38.97;34.69;45.89;;
45109;Laerm;30447;48.742;8.972;2023-06-10T12:02:18;39.33;34.69;53.62;;
45109;Laerm;30447;48.742;8.972;2023-06-10T12:04:45;39.61;35.36;56.25;;
45109;Laerm;30447;48.742;8.972;2023-06-10T12:07:18;44.39;35.04;61.30;;
45109;Laerm;30447;48.742;8.972;2023-06-10T12:09:45;46.65;36.91;59.34;;
45109;Laerm;30447;48.742;8.972;2023-06-10T12:12:12;39.77;35.36;50.73;;
45109;Laerm;30447;48.742;8.972;2023-06-10T12:15:00;39.71;35.04;52.80;;
45109;Laerm;30447;48.742;8.972;2023-06-10T12:20:01;43.67;35.66;64.67;;
45109;Laerm;30447;48.742;8.972;2023-06-10T12:22:41;42.45;35.66;59.01;;
45109;Laerm;30447;48.742;8.972;2023-06-10T12:25:10;43.83;35.66;58.02;;
45109;Laerm;30447;48.742;8.972;2023-06-10T12:27:39;44.56;38.02;58.29;;
45109;Laerm;30447;48.742;8.972;2023-06-10T12:30:07;42.58;34.31;57.18;;
45109;Laerm;30447;48.742;8.972;2023-06-10T12:32:40;43.15;36.20;59.74;;
45109;Laerm;30447;48.742;8.972;2023-06-10T12:35:09;39.06;32.35;48.57;;
45109;Laerm;30447;48.742;8.972;2023-06-10T12:37:36;39.72;34.31;52.98;;
45109;Laerm;30447;48.742;8.972;2023-06-10T12:40:04;39.56;35.66;52.24;;
45109;Laerm;30447;48.742;8.972;2023-06-10T12:42:38;42.54;36.45;58.43;;
45109;Laerm;30447;48.742;8.972;2023-06-10T12:45:06;41.20;35.04;55.99;;
45109;Laerm;30447;48.742;8.972;2023-06-10T12:47:37;50.46;35.94;67.42;;
45109;Laerm;30447;48.742;8.972;2023-06-10T12:50:08;51.76;36.20;69.12;;
45109;Laerm;30447;48.742;8.972;2023-06-10T12:52:35;52.21;36.20;68.84;;
45109;Laerm;30447;48.742;8.972;2023-06-10T12:55:02;59.28;35.36;79.58;;
45109;Laerm;30447;48.742;8.972;2023-06-10T12:57:30;52.67;35.36;71.25;;
45109;Laerm;30447;48.742;8.972;2023-06-10T12:59:57;51.46;34.31;71.11;;
45109;Laerm;30447;48.742;8.972;2023-06-10T13:02:30;49.41;34.31;68.14;;
45109;Laerm;30447;48.742;8.972;2023-06-10T13:04:56;51.29;35.04;69.51;;
45109;Laerm;30447;48.742;8.972;2023-06-10T13:07:23;47.97;35.04;68.62;;
45109;Laerm;30447;48.742;8.972;2023-06-10T13:09:50;39.08;35.36;47.77;;
45109;Laerm;30447;48.742;8.972;2023-06-10T13:12:16;39.28;35.36;46.97;;
45109;Laerm;30447;48.742;8.972;2023-06-10T13:14:44;40.53;36.20;53.64;;
45109;Laerm;30447;48.742;8.972;2023-06-10T13:17:10;43.26;36.45;58.76;;
45109;Laerm;30447;48.742;8.972;2023-06-10T13:19:37;41.72;35.36;56.98;;
45109;Laerm;30447;48.742;8.972;2023-06-10T13:22:03;42.66;36.20;55.28;;
45109;Laerm;30447;48.742;8.972;2023-06-10T13:24:30;42.20;35.94;57.15;;
45109;Laerm;30447;48.742;8.972;2023-06-10T13:26:57;44.35;35.66;61.22;;
45109;Laerm;30447;48.742;8.972;2023-06-10T13:29:23;45.41;35.66;68.79;;
45109;Laerm;30447;48.742;8.972;2023-06-10T13:31:50;44.23;36.77;58.17;;
45109;Laerm;30447;48.742;8.972;2023-06-10T13:34:17;44.45;35.66;63.67;;
45109;Laerm;30447;48.742;8.972;2023-06-10T13:36:44;41.29;35.36;61.81;;
45109;Laerm;30447;48.742;8.972;2023-06-10T13:39:11;44.68;35.66;70.04;;
45109;Laerm;30447;48.742;8.972;2023-06-10T13:41:41;41.62;35.04;56.14;;
45109;Laerm;30447;48.742;8.972;2023-06-10T13:44:08;43.88;35.66;60.67;;
45109;Laerm;30447;48.742;8.972;2023-06-10T13:46:34;40.65;35.36;57.60;;
45109;Laerm;30447;48.742;8.972;2023-06-10T13:49:01;40.00;35.94;49.35;;
45109;Laerm;30447;48.742;8.972;2023-06-10T13:51:28;39.87;34.31;51.13;;
45109;Laerm;30447;48.742;8.972;2023-06-10T13:53:54;42.12;35.66;56.72;;
45109;Laerm;30447;48.742;8.972;2023-06-10T13:56:21;40.11;35.04;55.48;;
45109;Laerm;30447;48.742;8.972;2023-06-10T13:58:48;40.25;35.36;57.49;;
45109;Laerm;30447;48.742;8.972;2023-06-10T14:01:14;40.38;35.36;58.84;;
45109;Laerm;30447;48.742;8.972;2023-06-10T14:03:41;40.40;36.69;57.61;;
45109;Laerm;30447;48.742;8.972;2023-06-10T14:06:07;41.00;36.20;54.95;;
45109;Laerm;30447;48.742;8.972;2023-06-10T14:08:35;41.42;36.45;55.24;;